createdAt,value
2023-04-02T00:07:33.946Z,99621.97
2023-04-02T00:17:38.181Z,99625.34
2023-04-02T00:27:40.985Z,99629.75
2023-04-02T00:37:44.633Z,99627.09
2023-04-02T00:47:53.093Z,99630.53
2023-04-02T00:58:39.800Z,99639.25
2023-04-02T01:08:51.821Z,99638.53
2023-04-02T01:19:19.724Z,99650.50
2023-04-02T01:29:58.510Z,99657.28
2023-04-02T01:40:34.720Z,99683.09
2023-04-02T01:50:39.000Z,99687.50
2023-04-02T02:00:48.233Z,99695.34
2023-04-02T02:10:57.276Z,99705.59
2023-04-02T02:21:01.524Z,99711.63
2023-04-02T02:31:17.718Z,99718.50
2023-04-02T02:41:36.183Z,99738.38
2023-04-02T02:51:44.589Z,99738.47
2023-04-02T03:01:47.805Z,99760.81
2023-04-02T03:12:25.162Z,99768.69
2023-04-02T03:22:37.643Z,99775.38
2023-04-02T03:32:43.993Z,99780.63
2023-04-02T03:42:51.042Z,99810.00
2023-04-02T03:52:53.373Z,99812.69
2023-04-02T04:03:00.283Z,99811.81
2023-04-02T04:13:12.540Z,99833.16
2023-04-02T04:23:30.364Z,99853.75
2023-04-02T04:33:42.277Z,99864.91
2023-04-02T04:44:00.122Z,99876.94
2023-04-02T04:54:05.628Z,99867.59
2023-04-02T05:04:33.476Z,99906.84
2023-04-02T05:14:48.607Z,99918.06
2023-04-02T05:24:57.725Z,99923.19
2023-04-02T05:35:06.856Z,99937.13
2023-04-02T05:45:31.690Z,99957.63
2023-04-02T05:55:56.106Z,99967.06
2023-04-02T06:06:30.915Z,99991.91
2023-04-02T06:16:41.644Z,99997.06
2023-04-02T06:26:49.984Z,100009.91
2023-04-02T06:36:57.972Z,100039.00
2023-04-02T06:47:08.477Z,100056.00
2023-04-02T06:57:14.004Z,100057.69
2023-04-02T07:07:15.977Z,100053.47
2023-04-02T07:17:21.303Z,100086.81
2023-04-02T07:27:25.343Z,100096.31
2023-04-02T07:37:27.446Z,100115.09
2023-04-02T07:47:29.874Z,100115.16
2023-04-02T07:57:44.244Z,100136.44
2023-04-02T08:07:55.735Z,100145.81
2023-04-02T08:18:04.659Z,100151.75
2023-04-02T08:28:09.081Z,100202.03
2023-04-02T08:38:15.919Z,100209.72
2023-04-02T08:48:24.582Z,100213.97
2023-04-02T08:58:47.624Z,100236.13
2023-04-02T09:08:53.703Z,100238.69
2023-04-02T09:19:01.405Z,100243.78
2023-04-02T09:29:12.501Z,100251.47
2023-04-02T09:39:21.512Z,100254.00
2023-04-02T09:49:27.314Z,100267.63
2023-04-02T09:59:29.947Z,100287.25
2023-04-02T10:09:37.099Z,100282.13
2023-04-02T10:19:52.221Z,100293.16
2023-04-02T10:30:23.144Z,100323.06
2023-04-02T10:40:28.049Z,100344.38
2023-04-02T10:50:51.071Z,100361.41
2023-04-02T11:01:08.338Z,100378.44
2023-04-02T11:11:28.107Z,100393.78
2023-04-02T11:21:58.025Z,100402.25
2023-04-02T11:32:28.699Z,100416.69
2023-04-02T11:42:36.614Z,100437.97
2023-04-02T11:53:02.587Z,100447.34
2023-04-02T12:03:45.124Z,100455.84
2023-04-02T12:14:29.744Z,100467.94
2023-04-02T12:24:32.412Z,100479.81
2023-04-02T12:34:46.790Z,100474.63
2023-04-02T12:44:54.781Z,100491.66
2023-04-02T12:55:07.547Z,100514.69
2023-04-02T13:05:09.840Z,100517.22
2023-04-02T13:15:29.100Z,100525.81
2023-04-02T13:25:37.335Z,100531.81
2023-04-02T13:35:40.895Z,100532.69
2023-04-02T13:45:56.666Z,100544.66
2023-04-02T13:56:00.056Z,100554.03
2023-04-02T14:06:24.753Z,100572.00
2023-04-02T14:16:54.071Z,100592.47
2023-04-02T14:27:04.749Z,100608.63
2023-04-02T14:37:23.086Z,100631.47
2023-04-02T14:47:32.941Z,100630.50
2023-04-02T14:57:49.583Z,100640.63
2023-04-02T15:08:25.092Z,100653.19
2023-04-02T15:18:28.307Z,100673.53
2023-04-02T15:28:41.701Z,100685.38
2023-04-02T15:38:56.930Z,100697.19
2023-04-02T15:49:30.636Z,100721.81
2023-04-02T15:59:58.583Z,100737.88
2023-04-02T16:10:41.821Z,100758.06
2023-04-02T16:20:49.392Z,100782.47
2023-04-02T16:31:33.257Z,100790.22
2023-04-02T16:42:01.500Z,100802.94
2023-04-02T16:52:10.508Z,100817.53
2023-04-02T17:02:30.037Z,100826.03
2023-04-02T17:13:01.626Z,100838.59
2023-04-02T17:23:05.915Z,100858.06
2023-04-02T17:33:14.341Z,100864.16
2023-04-02T17:44:01.678Z,100876.09
2023-04-02T17:54:20.378Z,100893.34
2023-04-02T18:04:31.278Z,100891.84
2023-04-02T18:14:49.672Z,100897.28
2023-04-02T18:24:59.264Z,100906.59
2023-04-02T18:35:35.107Z,100913.44
2023-04-02T18:45:41.730Z,100927.88
2023-04-02T18:56:06.914Z,100937.19
2023-04-02T19:06:20.706Z,100951.66
2023-04-02T19:16:57.009Z,100950.78
2023-04-02T19:27:21.308Z,100967.78
2023-04-02T19:37:29.396Z,100974.66
2023-04-02T19:47:31.957Z,100967.00
2023-04-02T19:57:38.277Z,100975.63
2023-04-02T20:07:41.232Z,100985.03
2023-04-02T20:17:47.578Z,100988.59
2023-04-02T20:27:50.151Z,100999.72
2023-04-02T20:37:52.665Z,101014.28
2023-04-02T20:47:55.114Z,101010.94
2023-04-02T20:57:57.277Z,101019.53
2023-04-02T21:08:24.467Z,101034.91
2023-04-02T21:18:27.075Z,101038.44
2023-04-02T21:28:29.454Z,101046.94
2023-04-02T21:38:32.409Z,101046.78
2023-04-02T21:48:42.295Z,101059.50
2023-04-02T21:58:46.328Z,101062.03
2023-04-02T22:08:53.622Z,101074.09
2023-04-02T22:18:59.236Z,101088.38
2023-04-02T22:29:03.332Z,101102.78
2023-04-02T22:39:13.137Z,101094.69
2023-04-02T22:49:19.713Z,101111.00
2023-04-02T22:59:26.872Z,101108.13
2023-04-02T23:09:37.654Z,101113.84
2023-04-02T23:19:39.749Z,101114.50
2023-04-02T23:29:41.653Z,101123.88
2023-04-02T23:39:45.652Z,101135.00
2023-04-02T23:49:48.160Z,101132.56
2023-04-02T23:59:53.206Z,101149.78
